Have a Safe July 4th! 

Flight Track Log - Related Links

Times and Time Zones

All times are in EDT time to prevent confusion due to time zone crossing. See the SWA561 flight status page for this flight to view local times or setup timezone preferences in your user account.

Time Position Orientation Groundspeed Altitude Reporting Facility
EDT Latitude Longitude Course Direction KTS MPH feet Rate Location/Type
Thu 10:09:45 PM 33.8611 -118.4833 195° South 254 292 3,900  Level Los Angeles Center
Thu 10:10:47 PM 33.7839 -118.5008 191° South 281 323 6,700 2,903 Climbing Los Angeles Center
Thu 10:11:49 PM 33.7042 -118.5039 182° South 296 341 9,900 2,371 Climbing Los Angeles Center
Thu 10:12:51 PM 33.6636 -118.4142 118° Southeast 322 371 11,600 2,274 Climbing Los Angeles Center
Thu 10:13:53 PM 33.6425 -118.2808 101° East 349 402 14,600 2,537 Climbing Los Angeles Center
Thu 10:14:00 PM 33.6336 -118.3341 116° Southeast  Level FlightAware Approximate
Thu 10:14:54 PM 33.6314 -118.1636 96° East 359 413 16,800  Level Los Angeles Center
Thu 10:15:56 PM 33.6186 -118.0389 97° East 376 433 18,700 1,790 Climbing Los Angeles Center
Thu 10:16:58 PM 33.6053 -117.9086 97° East 392 451 20,500 2,032 Climbing Los Angeles Center
Thu 10:18:00 PM 33.5889 -117.7517 97° East 399 459 22,900 1,887 Climbing Los Angeles Center
Thu 10:19:02 PM 33.5744 -117.6133 97° East 416 479 24,400 1,452 Climbing Los Angeles Center
Thu 10:20:04 PM 33.5594 -117.4717 97° East 428 493 25,900 1,415 Climbing Los Angeles Center
Thu 10:21:05 PM 33.5444 -117.3267 97° East 439 505 27,300 1,220 Climbing Los Angeles Center
Thu 10:22:07 PM 33.5283 -117.1794 97° East 447 514 28,400 1,113 Climbing Los Angeles Center
Thu 10:23:09 PM 33.5094 -117.0158 98° East 460 529 29,600 1,161 Climbing Los Angeles Center
Thu 10:24:11 PM 33.4944 -116.8633 97° East 460 529 30,800 1,016 Climbing Los Angeles Center
Thu 10:25:13 PM 33.4769 -116.7089 98° East 465 535 31,700 968 Climbing Los Angeles Center
Thu 10:26:15 PM 33.4603 -116.5525 97° East 470 541 32,800 968 Climbing Los Angeles Center
Thu 10:27:17 PM 33.4417 -116.3967 98° East 470 541 33,700 927 Climbing Los Angeles Center
Thu 10:28:18 PM 33.4203 -116.2097 98° East 470 541 34,700 634 Climbing Los Angeles Center
Thu 10:29:20 PM 33.4011 -116.0553 98° East 465 535 35,000 145 Climbing Los Angeles Center
Thu 10:30:22 PM 33.3839 -115.9044 98° East 456 525 35,000  Level Los Angeles Center
Thu 10:31:24 PM 33.3656 -115.7542 98° East 454 522 35,000  Level Los Angeles Center
Thu 10:32:25 PM 33.3472 -115.6028 98° East 457 526 35,000  Level Los Angeles Center
Thu 10:33:40 PM 33.3239 -115.4231 99° East 455 524 35,000  Level Los Angeles Center
Thu 10:34:41 PM 33.3058 -115.2711 98° East 459 528 35,000  Level Los Angeles Center
Thu 10:35:43 PM 33.2861 -115.1172 99° East 467 537 35,000  Level Los Angeles Center
Thu 10:36:45 PM 33.2636 -114.9322 98° East 471 542 35,000  Level Los Angeles Center
Thu 10:37:47 PM 33.2400 -114.7772 100° East 473 544 35,000  Level Los Angeles Center
Thu 10:38:49 PM 33.2233 -114.6197 97° East 476 548 35,000  Level Los Angeles Center
Thu 10:39:27 PM 33.2117 -114.5097 97° East 478 550 35,000  Level Albuquerque Center
Thu 10:40:28 PM 33.1917 -114.3531 99° East 478 550 35,000  Level Albuquerque Center
Thu 10:41:30 PM 33.1703 -114.1983 99° East 475 547 35,000  Level Albuquerque Center
Thu 10:42:31 PM 33.1494 -114.0425 99° East 474 545 35,000  Level Albuquerque Center
Thu 10:43:32 PM 33.1289 -113.8889 99° East 471 542 35,000  Level Albuquerque Center
Thu 10:44:34 PM 33.1078 -113.7356 99° East 469 540 35,000  Level Albuquerque Center
Thu 10:45:35 PM 33.0858 -113.5825 100° East 468 539 35,000 -541 Level Albuquerque Center
Thu 10:46:36 PM 33.0644 -113.4281 99° East 470 541 33,900 -1,024 Descending Albuquerque Center
Thu 10:47:38 PM 33.0428 -113.2764 100° East 466 536 32,900 -927 Descending Albuquerque Center
Thu 10:48:39 PM 33.0200 -113.1217 100° East 468 539 32,000 -927 Descending Albuquerque Center
Thu 10:49:41 PM 32.9933 -112.9303 99° East 478 550 31,000 -927 Descending Albuquerque Center
Thu 10:50:42 PM 32.9703 -112.7714 100° East 485 558 30,100 -934 Descending Albuquerque Center
Thu 10:51:43 PM 32.9356 -112.6175 105° East 485 558 29,100 -927 Descending Albuquerque Center
Thu 10:52:45 PM 32.8789 -112.4711 115° Southeast 484 557 28,200 -976 Descending Albuquerque Center
Thu 10:53:46 PM 32.8225 -112.3258 115° Southeast 483 556 27,100 -1,220 Descending Albuquerque Center
Thu 10:54:48 PM 32.7708 -112.1900 114° Southeast 482 555 25,700 -1,854 Descending Albuquerque Center
Thu 10:55:49 PM 32.7169 -112.0531 115° Southeast 470 541 23,300 -2,488 Descending Albuquerque Center
Thu 10:56:51 PM 32.6575 -111.8972 114° Southeast 442 509 20,600 -2,341 Descending Albuquerque Center
Thu 10:57:52 PM 32.6092 -111.7769 115° Southeast 416 479 18,500 -1,979 Descending Albuquerque Center
Thu 10:58:28 PM 32.5794 -111.7078 117° Southeast 399 459 17,400 -1,967 Descending Albuquerque Center
Thu 10:58:53 PM 32.5631 -111.6625 113° Southeast 395 455 16,500 -2,333 Descending Albuquerque Center
Thu 10:59:40 PM 32.5136 -111.5736 123° Southeast 385 443 14,600 -2,226 Descending Albuquerque Center
Thu 10:59:55 PM 32.5072 -111.5594 118° Southeast 379 436 14,200 -1,574 Descending Albuquerque Center
Thu 11:00:41 PM 32.4478 -111.4878 134° Southeast 371 427 13,000 -1,475 Descending Albuquerque Center
Thu 11:00:56 PM 32.4383 -111.4747 131° Southeast 362 417 12,700 -1,900 Descending Albuquerque Center
Thu 11:01:41 PM 32.3756 -111.4111 139° Southeast 351 404 11,100 -1,770 Descending Albuquerque Center
Thu 11:01:57 PM 32.3675 -111.3994 129° Southeast 347 399 10,900 -1,082 Descending Albuquerque Center
Thu 11:02:42 PM 32.3069 -111.3436 142° Southeast 324 373 10,000 -1,065 Descending Albuquerque Center
Thu 11:02:59 PM 32.2997 -111.3311 124° Southeast 329 379 9,800 -1,279 Descending Albuquerque Center
Thu 11:03:43 PM 32.2436 -111.2822 144° Southeast 297 342 8,700 -1,180 Descending Albuquerque Center
Thu 11:04:00 PM 32.2358 -111.2744 140° Southeast 298 343 8,600 -1,000 Descending Albuquerque Center
Thu 11:04:43 PM 32.1947 -111.2172 130° Southeast 267 307 7,700 -1,258 Descending Albuquerque Center
Thu 11:05:02 PM 32.1808 -111.1953 127° Southeast 266 306 7,300 -982 Descending Albuquerque Center
Thu 11:05:38 PM 32.1533 -111.1581 131° Southeast 258 297 6,800 -984 Descending Albuquerque Center
Thu 11:06:03 PM 32.1353 -111.1297 127° Southeast 260 299 6,300 -1,100 Descending Albuquerque Center
Thu 11:06:38 PM 32.1072 -111.0972 136° Southeast 250 288 5,700 -1,065 Descending Albuquerque Center
Thu 11:07:05 PM 32.0911 -111.0681 123° Southeast 255 293 5,200 -689 Descending Albuquerque Center
Thu 11:07:39 PM 32.0603 -111.0319 135° Southeast 244 281 5,000 -197 Descending Albuquerque Center
Thu 11:08:06 PM 32.0539 -111.0058 106° East 243 280 5,000 -295 Level Albuquerque Center
Thu 11:08:40 PM 32.0467 -110.9628 101° East 223 257 4,700 -677 Descending Albuquerque Center
Thu 11:09:08 PM 32.0422 -110.9364 101° East 231 266 4,300 -900 Descending Albuquerque Center
Thu 11:09:40 PM 32.0489 -110.9092 74° East 164 189 3,800 -710 Descending Albuquerque Center
Thu 11:10:41 PM 32.0842 -110.9022 North 144 166 3,200 -590 Descending Albuquerque Center
Thu 11:12:00 PM 32.1000 -110.9333 337° Northwest  Level FlightAware Approximate

Login

Don't have an account? Register now (free) for customized features, flight alerts, and more!